Main page
METAR-TAF:

METAR-TAF

Airports :

Al Qaisumah/Hafr Al Batin Airport

Qaisumah, Saudi Arabia

latitude: 28-19N, longitude: 046-07E, elevation: 358 m

Current weather observation

The report was made 31 minutes ago, at 06:00 UTC
Wind 6 kt from the East
Temperature 31°C
Humidity 29%
Pressure 1013 hPa
Visibility: 7000 m

METAR: OEPA 250600Z 09006KT 7000 NSC 31/11 Q1013 NOSIG

Time: 09:31 (06:31 UTC)

Forecast

The report was made 8 hours and 31 minutes ago, at 22:00 UTC
Forecast valid from 25 at 00 UTC to 26 at 06 UTC
Wind 8 kt from the East/Northeast
Visibility: 8000 m
Probability 30% :
Temporary
from 25 at 02 UTC to 25 at 12 UTC
Visibility: 5000 m
widespread dust
Becoming
from 25 at 10 UTC to 25 at 12 UTC
Wind 7 kt from the North

TAF: OEPA 242200Z 2500/2606 07008KT 8000 NSC PROB30 TEMPO 2502/2512 5000 DU BECMG 2510/2512 01007KT

Weather observations and forecasts of more than 4000 airports (METAR and TAF reports).

The available stations are represented by yellow and red dots on the map.

Hover mouse over dot to see the name of the station.

Then click to see weather observations and forecasts.

To change the map : click on the green buttons with a black cross to zoom in, on the green button with a dash to zoom out, or on the green arrows for adjacent maps.


METAR-TAF: